Time;durP1;ratioP1;P1;durP2;ratioP2;P2;SDS_P1;SDS_P2;PMS_P1;PMS_P2;Temp;Humidity;BMP_temperature;BMP_pressure;BME280_temperature;BME280_humidity;BME280_pressure;Samples;Min_cycle;Max_cycle;Signal;HPM_P1;HPM_P2
2022/11/08 00:01:33;;;;;;;10.63;3.47;;;;;;;11.96;90.16;100926.66;5057897;28;20303;-71
2022/11/08 00:04:09;;;;;;;11.68;3.85;;;;;;;11.97;90.34;100927.53;5058754;28;20036;-71
2022/11/08 00:14:47;;;;;;;11.55;3.30;;;;;;;11.89;90.33;100927.34;5057741;28;20118;-71
2022/11/08 00:17:14;;;;;;;12.55;3.67;;;;;;;11.87;90.46;100923.81;5059040;28;20028;-71
2022/11/08 00:19:41;;;;;;;9.10;3.53;;;;;;;11.84;90.45;100916.78;5058705;28;20056;-71
2022/11/08 00:22:07;;;;;;;9.60;3.25;;;;;;;11.81;90.59;100924.56;5058435;28;20017;-71
2022/11/08 00:24:33;;;;;;;12.38;3.40;;;;;;;11.79;90.62;100925.41;5058216;28;20087;-71
2022/11/08 00:26:59;;;;;;;10.20;3.20;;;;;;;11.76;90.87;100912.28;5061820;28;20044;-71
2022/11/08 00:29:24;;;;;;;10.40;3.13;;;;;;;11.75;91.16;100920.97;5057133;28;20332;-71
2022/11/08 00:31:49;;;;;;;11.15;3.40;;;;;;;11.76;90.94;100922.72;5057527;28;20047;-71
2022/11/08 00:34:15;;;;;;;10.25;3.55;;;;;;;11.73;90.91;100917.44;5057136;28;20076;-71
2022/11/08 00:36:40;;;;;;;12.93;3.15;;;;;;;11.72;91.04;100921.78;5055923;28;20100;-71
2022/11/08 00:39:05;;;;;;;9.07;3.50;;;;;;;11.69;91.09;100911.28;5053991;28;20032;-71
2022/11/08 00:41:31;;;;;;;9.10;3.50;;;;;;;11.68;91.33;100908.66;5057530;28;20323;-71
2022/11/08 00:43:56;;;;;;;8.57;3.20;;;;;;;11.64;91.34;100908.59;5054813;28;20040;-71
2022/11/08 00:46:21;;;;;;;11.35;3.38;;;;;;;11.63;91.44;100905.94;5051407;28;20025;-71
2022/11/08 00:48:47;;;;;;;11.70;3.25;;;;;;;11.60;91.73;100911.09;5051816;28;20043;-71
2022/11/08 00:51:12;;;;;;;11.48;3.22;;;;;;;11.59;91.58;100907.59;5050918;28;20040;-71
2022/11/08 00:53:38;;;;;;;10.13;3.00;;;;;;;11.57;91.80;100904.09;5045286;28;20093;-71
2022/11/08 00:56:06;;;;;;;10.13;3.08;;;;;;;11.58;91.66;100900.63;5056615;28;20032;-71
2022/11/08 00:58:32;;;;;;;9.40;3.47;;;;;;;11.57;91.84;100898.88;5056899;28;20031;-71
2022/11/08 01:00:58;;;;;;;10.18;3.53;;;;;;;11.56;91.85;100891.88;5059664;28;20128;-71
2022/11/08 01:03:24;;;;;;;9.85;3.30;;;;;;;11.54;91.85;100896.19;5062835;28;20037;-71
2022/11/08 01:05:52;;;;;;;8.05;3.10;;;;;;;11.51;92.12;100901.34;5062196;28;20059;-71
2022/11/08 01:08:19;;;;;;;12.52;3.67;;;;;;;11.49;91.99;100897.81;5061665;28;20020;-71
2022/11/08 01:10:47;;;;;;;8.93;3.28;;;;;;;11.44;91.78;100894.22;5056013;28;20044;-71
2022/11/08 01:13:12;;;;;;;8.52;2.92;;;;;;;11.40;92.43;100890.69;5056832;28;20025;-71
2022/11/08 01:15:40;;;;;;;10.43;3.22;;;;;;;11.39;92.45;100885.44;5055999;28;20043;-71
2022/11/08 01:18:06;;;;;;;9.50;3.22;;;;;;;11.39;92.62;100890.66;5056374;28;20052;-71
2022/11/08 01:20:36;;;;;;;9.30;3.13;;;;;;;11.38;92.64;100891.50;5055623;28;20051;-71
2022/11/08 01:23:01;;;;;;;13.30;4.05;;;;;;;11.36;92.67;100882.78;5056621;28;20024;-71
2022/11/08 01:25:26;;;;;;;8.68;3.90;;;;;;;11.35;93.05;100883.63;5062497;28;20204;-71
2022/11/08 01:27:51;;;;;;;9.18;3.80;;;;;;;11.34;93.11;100884.44;5063794;28;20070;-71
2022/11/08 01:30:17;;;;;;;8.30;3.58;;;;;;;11.33;93.14;100885.31;5062815;28;20028;-71
2022/11/08 01:32:42;;;;;;;10.25;4.00;;;;;;;11.31;93.07;100883.56;5059969;28;20096;-71
2022/11/08 01:35:08;;;;;;;11.45;4.28;;;;;;;11.30;93.05;100879.19;5055528;28;20087;-71
2022/11/08 01:37:33;;;;;;;11.50;4.10;;;;;;;11.29;93.27;100873.94;5053546;28;20228;-77
2022/11/08 01:39:58;;;;;;;10.13;4.05;;;;;;;11.27;92.97;100870.41;5055998;28;20101;-77
2022/11/08 01:42:31;;;;;;;12.43;4.00;;;;;;;11.25;93.31;100873.00;5055298;28;20025;-77
2022/11/08 01:45:20;;;;;;;12.20;4.00;;;;;;;11.25;93.42;100861.66;5058521;28;20033;-77
2022/11/08 01:47:45;;;;;;;12.02;4.43;;;;;;;11.26;93.36;100863.44;5059794;28;20028;-77
2022/11/08 01:50:15;;;;;;;10.60;4.45;;;;;;;11.25;93.39;100846.91;5061189;28;20039;-77
2022/11/08 01:52:46;;;;;;;13.73;4.18;;;;;;;11.25;93.48;100848.63;5062992;28;20017;-78
2022/11/08 01:55:21;;;;;;;8.02;3.85;;;;;;;11.25;93.68;100841.69;5062888;28;20025;-77
2022/11/08 01:57:56;;;;;;;9.68;3.75;;;;;;;11.24;93.41;100834.72;5063128;28;20047;-77
2022/11/08 02:00:22;;;;;;;10.63;3.95;;;;;;;11.23;93.64;100838.16;5061144;28;20040;-78
2022/11/08 02:02:57;;;;;;;10.50;4.05;;;;;;;11.22;93.58;100830.31;5062204;28;20070;-77
2022/11/08 02:05:25;;;;;;;8.88;3.75;;;;;;;11.20;93.56;100824.19;5052407;28;20025;-77
2022/11/08 02:07:54;;;;;;;11.23;4.20;;;;;;;11.18;93.67;100824.16;5058055;28;20354;-71
2022/11/08 02:10:22;;;;;;;8.23;3.85;;;;;;;11.18;93.93;100818.94;5056548;28;20033;-71
2022/11/08 02:12:48;;;;;;;9.52;3.70;;;;;;;11.19;93.69;100807.63;5056455;28;20263;-71
2022/11/08 02:15:15;;;;;;;8.73;3.50;;;;;;;11.19;93.61;100807.63;5070135;28;20094;-71
2022/11/08 02:17:41;;;;;;;11.75;4.35;;;;;;;11.20;93.58;100808.53;5055548;28;20033;-71
2022/11/08 02:20:06;;;;;;;8.68;3.30;;;;;;;11.21;93.60;100808.56;5054997;28;20147;-71
2022/11/08 02:22:43;;;;;;;9.93;3.30;;;;;;;11.23;93.81;100808.59;5054466;28;20033;-71
2022/11/08 02:25:08;;;;;;;10.77;3.53;;;;;;;11.25;93.55;100810.41;5054850;28;20110;-71
2022/11/08 02:27:33;;;;;;;7.47;3.10;;;;;;;11.25;93.31;100797.34;5055045;28;20036;-71
2022/11/08 02:29:58;;;;;;;11.85;3.70;;;;;;;11.25;93.34;100797.34;5054846;28;20102;-71
2022/11/08 02:32:24;;;;;;;9.35;3.80;;;;;;;11.27;93.13;100786.94;5060774;28;20025;-71
2022/11/08 02:34:56;;;;;;;11.40;3.63;;;;;;;11.27;92.94;100787.81;5061602;28;20061;-72
2022/11/08 02:37:22;;;;;;;6.50;3.20;;;;;;;11.26;92.76;100780.84;5061923;28;20029;-71
2022/11/08 02:39:47;;;;;;;6.93;3.33;;;;;;;11.26;92.84;100780.84;5061774;28;20128;-71
2022/11/08 02:42:15;;;;;;;9.23;3.47;;;;;;;11.25;92.97;100781.72;5057785;28;20335;-71
2022/11/08 02:44:40;;;;;;;7.70;3.20;;;;;;;11.25;92.51;100775.59;5054346;28;20055;-71
2022/11/08 02:47:05;;;;;;;9.50;3.35;;;;;;;11.25;92.43;100775.59;5054692;28;20037;-71
2022/11/08 02:49:31;;;;;;;10.63;3.30;;;;;;;11.24;92.64;100776.44;5056354;28;20025;-71
2022/11/08 02:51:56;;;;;;;7.35;3.08;;;;;;;11.23;92.58;100772.94;5058602;28;20044;-71
2022/11/08 02:54:21;;;;;;;8.82;3.45;;;;;;;11.21;92.43;100758.13;5057887;28;20043;-71
2022/11/08 02:56:47;;;;;;;10.45;3.60;;;;;;;11.20;92.56;100759.84;5057383;28;20032;-71
2022/11/08 02:59:12;;;;;;;8.30;3.25;;;;;;;11.21;92.88;100755.50;5059777;28;20024;-71
2022/11/08 03:01:37;;;;;;;11.20;3.40;;;;;;;11.21;92.48;100745.97;5065180;28;20035;-71
2022/11/08 03:04:03;;;;;;;12.50;3.70;;;;;;;11.19;92.07;100744.19;5065150;28;20040;-71
2022/11/08 03:06:28;;;;;;;9.02;3.42;;;;;;;11.15;92.10;100740.63;5066079;28;20021;-77
2022/11/08 03:08:53;;;;;;;6.07;2.80;;;;;;;11.12;92.06;100740.56;5078346;28;20173;-78
2022/11/08 03:11:19;;;;;;;8.80;3.15;;;;;;;11.10;92.27;100734.44;5064968;28;20198;-78
2022/11/08 03:13:44;;;;;;;8.02;3.28;;;;;;;11.09;92.31;100732.69;5064753;28;20091;-77
2022/11/08 03:16:09;;;;;;;9.35;2.90;;;;;;;11.05;92.11;100729.16;5058878;28;20045;-77
2022/11/08 03:18:34;;;;;;;9.48;3.50;;;;;;;11.01;92.33;100716.91;5058416;28;20036;-77
2022/11/08 03:21:02;;;;;;;9.02;3.47;;;;;;;10.98;92.28;100719.44;5057339;28;20066;-77
2022/11/08 03:23:28;;;;;;;15.98;3.90;;;;;;;10.91;92.36;100710.63;5073253;28;20016;-77
2022/11/08 03:25:53;;;;;;;11.00;3.65;;;;;;;10.89;92.38;100712.31;5059482;28;20033;-77
2022/11/08 03:28:19;;;;;;;10.27;3.60;;;;;;;10.86;92.74;100717.47;5059313;28;20094;-77
2022/11/08 03:30:44;;;;;;;11.13;4.00;;;;;;;10.83;92.99;100706.97;5058989;28;20248;-78
2022/11/08 03:33:09;;;;;;;10.00;3.88;;;;;;;10.84;92.93;100703.53;5058559;28;20037;-77
2022/11/08 03:35:34;;;;;;;13.43;3.80;;;;;;;10.82;92.92;100700.03;5058235;28;20035;-77
2022/11/08 03:38:00;;;;;;;11.18;4.10;;;;;;;10.82;92.80;100700.03;5058361;28;20271;-78
2022/11/08 03:40:26;;;;;;;14.65;4.00;;;;;;;10.81;92.68;100689.56;5058871;28;20028;-77
2022/11/08 03:42:51;;;;;;;9.60;3.72;;;;;;;10.78;92.76;100688.63;5077648;28;20021;-77
2022/11/08 03:45:17;;;;;;;10.30;3.88;;;;;;;10.77;92.67;100675.56;5064333;28;20073;-78
2022/11/08 03:47:44;;;;;;;14.27;4.18;;;;;;;10.75;92.63;100669.47;5065700;28;20024;-77
2022/11/08 03:50:11;;;;;;;12.48;3.97;;;;;;;10.72;92.69;100661.59;5064458;28;20092;-78
2022/11/08 03:52:49;;;;;;;11.85;4.38;;;;;;;10.69;92.92;100662.41;5062504;28;20086;-77
2022/11/08 03:55:15;;;;;;;12.02;4.35;;;;;;;10.69;92.80;100653.69;5057382;28;20224;-78
2022/11/08 03:57:41;;;;;;;13.45;4.43;;;;;;;10.68;92.73;100659.78;5057902;28;20029;-75
2022/11/08 04:00:09;;;;;;;11.23;3.80;;;;;;;10.66;92.52;100649.31;5061586;28;20056;-77
2022/11/08 04:02:34;;;;;;;11.30;3.65;;;;;;;10.66;92.66;100648.41;5058576;28;20264;-78
2022/11/08 04:05:00;;;;;;;9.65;3.70;;;;;;;10.63;92.88;100640.53;5058780;28;20040;-77
2022/11/08 04:07:25;;;;;;;8.45;3.50;;;;;;;10.61;92.80;100643.13;5058109;28;20036;-77
2022/11/08 04:09:51;;;;;;;10.07;3.50;;;;;;;10.60;92.78;100644.84;5072714;28;20149;-77
2022/11/08 04:15:15;;;;;;;9.10;3.20;;;;;;;10.56;92.58;100627.41;5064329;28;20040;-77
2022/11/08 04:23:15;;;;;;;9.73;3.20;;;;;;;10.59;91.98;100614.44;5064458;28;19969;-78
2022/11/08 04:25:41;;;;;;;10.05;3.50;;;;;;;10.57;91.83;100623.97;5079923;28;20017;-77
2022/11/08 04:28:07;;;;;;;10.23;3.80;;;;;;;10.56;91.63;100609.16;5064201;28;20071;-78
2022/11/08 04:30:33;;;;;;;11.13;4.20;;;;;;;10.54;91.60;100604.75;5064028;28;20057;-78
2022/11/08 04:33:03;;;;;;;9.52;3.70;;;;;;;10.50;91.69;100614.25;5064446;28;20263;-77
2022/11/08 04:35:29;;;;;;;9.32;3.33;;;;;;;10.49;91.34;100598.59;5063686;28;20040;-78
2022/11/08 04:37:59;;;;;;;6.97;3.35;;;;;;;10.48;91.11;100592.50;5062190;28;20226;-77
2022/11/08 04:40:25;;;;;;;10.10;3.63;;;;;;;10.48;90.95;100597.69;5079004;28;20033;-77
2022/11/08 04:42:51;;;;;;;7.78;3.10;;;;;;;10.47;90.55;100590.75;5064534;28;20032;-77
2022/11/08 04:45:16;;;;;;;9.63;3.30;;;;;;;10.47;90.41;100593.38;5064106;28;20036;-78
2022/11/08 04:47:44;;;;;;;7.70;2.97;;;;;;;10.45;90.40;100595.03;5062692;28;20358;-71
2022/11/08 04:50:10;;;;;;;10.85;3.60;;;;;;;10.45;90.17;100592.44;5063931;28;20045;-71
2022/11/08 04:52:35;;;;;;;10.15;3.00;;;;;;;10.44;90.14;100588.06;5063806;28;20083;-71
2022/11/08 04:55:00;;;;;;;11.90;3.35;;;;;;;10.43;89.81;100571.56;5062455;28;20020;-71
2022/11/08 04:57:27;;;;;;;8.23;3.35;;;;;;;10.41;89.96;100562.88;5062871;28;20020;-71
2022/11/08 04:59:52;;;;;;;6.95;3.10;;;;;;;10.39;89.64;100559.34;5063407;28;20100;-71
2022/11/08 05:02:18;;;;;;;8.70;2.97;;;;;;;10.37;89.62;100561.03;5062334;28;20036;-71
2022/11/08 05:04:43;;;;;;;9.18;3.42;;;;;;;10.37;89.57;100560.13;5063489;28;20255;-71
2022/11/08 05:07:08;;;;;;;8.98;3.20;;;;;;;10.37;89.29;100560.13;5064225;28;20029;-71
2022/11/08 05:09:33;;;;;;;9.25;3.30;;;;;;;10.37;89.10;100553.22;5078189;28;20025;-71
2022/11/08 05:11:59;;;;;;;8.43;3.00;;;;;;;10.38;88.84;100551.50;5063619;28;20029;-71
2022/11/08 05:14:24;;;;;;;8.45;2.88;;;;;;;10.37;88.61;100553.22;5062545;28;20043;-71
2022/11/08 05:16:49;;;;;;;7.88;3.15;;;;;;;10.36;88.41;100548.00;5063323;28;20044;-71
2022/11/08 05:23:22;;;;;;;7.85;3.08;;;;;;;10.36;88.23;100546.25;5062131;28;20279;-71
2022/11/08 05:24:44;;;;;;;7.38;2.70;;;;;;;10.37;87.79;100553.22;5063352;28;20032;-71
2022/11/08 05:27:09;;;;;;;5.90;2.63;;;;;;;10.37;87.84;100548.03;5062974;28;20112;-71
2022/11/08 05:29:34;;;;;;;5.43;2.60;;;;;;;10.39;87.48;100545.44;5063187;28;20263;-71
2022/11/08 05:32:00;;;;;;;10.52;2.88;;;;;;;10.39;87.26;100541.09;5062768;28;20036;-71
2022/11/08 05:34:25;;;;;;;7.57;2.75;;;;;;;10.38;86.98;100534.13;5062969;28;20310;-71
2022/11/08 05:36:50;;;;;;;7.53;2.80;;;;;;;10.38;86.92;100533.25;5061851;28;20043;-71
2022/11/08 05:39:16;;;;;;;6.43;2.55;;;;;;;10.38;87.00;100525.44;5062287;28;20045;-71
2022/11/08 05:41:41;;;;;;;6.68;2.63;;;;;;;10.38;86.74;100526.31;5062727;28;20025;-71
2022/11/08 05:44:06;;;;;;;7.63;2.60;;;;;;;10.38;86.64;100528.06;5062170;28;20099;-71
2022/11/08 05:46:31;;;;;;;8.57;2.83;;;;;;;10.39;86.79;100529.81;5062185;28;20025;-77
2022/11/08 05:48:57;;;;;;;7.05;2.83;;;;;;;10.38;86.57;100520.25;5062314;28;20033;-77
2022/11/08 05:51:22;;;;;;;8.43;2.80;;;;;;;10.38;86.47;100531.53;5078957;28;20204;-77
2022/11/08 05:53:48;;;;;;;8.88;3.28;;;;;;;10.39;86.07;100528.06;5076060;28;20084;-77
2022/11/08 05:56:13;;;;;;;6.63;2.90;;;;;;;10.38;86.33;100525.44;5061874;28;20020;-76
2022/11/08 05:58:39;;;;;;;6.75;2.65;;;;;;;10.36;86.25;100525.41;5062328;28;20272;-77
2022/11/08 06:01:10;;;;;;;6.28;2.85;;;;;;;10.35;86.28;100525.38;5063099;28;20017;-77
2022/11/08 06:03:36;;;;;;;6.30;2.72;;;;;;;10.35;86.06;100520.19;5062470;28;20047;-77
2022/11/08 06:06:07;;;;;;;5.93;3.10;;;;;;;10.34;86.37;100518.41;5062778;28;20279;-77
2022/11/08 06:08:33;;;;;;;9.43;3.20;;;;;;;10.32;86.01;100507.94;5062445;28;20084;-77
2022/11/08 06:11:03;;;;;;;5.35;2.63;;;;;;;10.32;86.34;100512.28;5062470;28;20177;-77
2022/11/08 06:13:28;;;;;;;7.25;2.92;;;;;;;10.31;86.35;100508.81;5061502;28;20052;-77
2022/11/08 06:15:54;;;;;;;9.23;2.80;;;;;;;10.31;86.04;100507.91;5061425;28;20183;-76
2022/11/08 06:18:19;;;;;;;6.45;2.80;;;;;;;10.30;86.07;100516.56;5062455;28;20037;-76
2022/11/08 06:20:44;;;;;;;8.95;3.58;;;;;;;10.30;85.81;100516.56;5061671;28;20052;-77
2022/11/08 06:23:09;;;;;;;7.90;3.40;;;;;;;10.27;85.63;100518.28;5062161;28;20170;-77
2022/11/08 06:25:36;;;;;;;7.45;3.65;;;;;;;10.27;85.84;100522.63;5062074;28;20025;-77
2022/11/08 06:28:01;;;;;;;7.20;2.90;;;;;;;10.24;85.78;100518.22;5062772;28;20095;-77
2022/11/08 06:30:26;;;;;;;7.22;2.60;;;;;;;10.24;85.83;100517.34;5061592;28;20040;-77
2022/11/08 06:32:52;;;;;;;5.95;2.80;;;;;;;10.22;85.65;100517.28;5060645;28;20301;-77
2022/11/08 06:35:17;;;;;;;5.50;2.78;;;;;;;10.23;85.33;100519.06;5060960;28;20254;-76
2022/11/08 06:37:43;;;;;;;7.15;2.92;;;;;;;10.21;85.68;100518.16;5061849;28;20052;-81
2022/11/08 06:40:11;;;;;;;6.60;2.75;;;;;;;10.21;85.59;100523.38;5061717;28;20039;-77
2022/11/08 06:42:36;;;;;;;7.07;3.08;;;;;;;10.19;85.42;100522.44;5061555;28;20025;-77
2022/11/08 06:45:01;;;;;;;8.80;2.95;;;;;;;10.17;85.53;100518.94;5062075;28;20029;-77
2022/11/08 06:47:26;;;;;;;8.98;3.80;;;;;;;10.16;85.36;100525.00;5061298;28;20036;-71
2022/11/08 06:49:52;;;;;;;5.57;2.90;;;;;;;10.18;85.58;100522.41;5061138;28;20041;-70
2022/11/08 06:52:17;;;;;;;8.15;3.25;;;;;;;10.16;85.66;100511.09;5061125;28;20025;-71
2022/11/08 06:54:42;;;;;;;7.90;3.00;;;;;;;10.15;85.47;100518.00;5061644;28;20100;-71
2022/11/08 06:57:07;;;;;;;9.90;3.40;;;;;;;10.16;85.29;100524.13;5060365;28;20263;-71
2022/11/08 06:59:33;;;;;;;6.40;2.90;;;;;;;10.16;85.29;100519.78;5061615;28;20029;-71
2022/11/08 07:01:58;;;;;;;8.75;3.05;;;;;;;10.17;85.12;100518.94;5061699;28;20102;-71
2022/11/08 07:04:23;;;;;;;7.78;2.90;;;;;;;10.19;84.60;100525.03;5061286;28;20025;-71
2022/11/08 07:06:49;;;;;;;6.53;2.97;;;;;;;10.20;84.95;100523.34;5061059;28;20028;-71
2022/11/08 07:09:14;;;;;;;7.97;3.25;;;;;;;10.19;84.84;100532.00;5061769;28;20112;-71
2022/11/08 07:11:39;;;;;;;7.68;3.20;;;;;;;10.23;84.45;100536.41;5061890;28;20049;-70
2022/11/08 07:14:05;;;;;;;7.63;3.00;;;;;;;10.24;84.77;100541.66;5060905;28;20033;-71
2022/11/08 07:16:30;;;;;;;7.95;3.10;;;;;;;10.25;84.28;100533.00;5060880;28;20060;-71
2022/11/08 07:18:56;;;;;;;6.55;2.88;;;;;;;10.27;84.30;100536.50;5061501;28;20025;-71
2022/11/08 07:21:22;;;;;;;8.38;3.10;;;;;;;10.31;83.91;100533.94;5061515;28;20029;-71
2022/11/08 07:23:47;;;;;;;7.65;3.30;;;;;;;10.32;84.15;100533.13;5060790;28;20268;-71
2022/11/08 07:26:13;;;;;;;7.20;2.72;;;;;;;10.31;84.07;100526.13;5061467;28;20111;-71
2022/11/08 07:28:39;;;;;;;7.43;3.30;;;;;;;10.31;84.00;100527.03;5061997;28;20017;-71
2022/11/08 07:31:04;;;;;;;6.78;2.83;;;;;;;10.32;84.44;100527.91;5060552;28;20546;-71
2022/11/08 07:33:30;;;;;;;8.57;3.00;;;;;;;10.32;84.10;100525.31;5062170;28;20051;-71
2022/11/08 07:35:55;;;;;;;10.77;3.35;;;;;;;10.33;83.98;100521.84;5061138;28;20048;-71
2022/11/08 07:38:22;;;;;;;8.02;3.00;;;;;;;10.34;83.81;100523.63;5060355;28;20032;-71
2022/11/08 07:40:47;;;;;;;8.77;3.42;;;;;;;10.34;83.46;100521.91;5060626;28;20091;-71
2022/11/08 07:43:12;;;;;;;9.32;3.13;;;;;;;10.36;83.39;100527.16;5061703;28;20029;-71
2022/11/08 07:45:38;;;;;;;9.18;3.20;;;;;;;10.37;83.54;100524.56;5060484;28;20028;-72
2022/11/08 07:48:07;;;;;;;7.85;3.30;;;;;;;10.39;83.66;100519.41;5064914;28;20234;-79
2022/11/08 07:50:32;;;;;;;7.07;2.90;;;;;;;10.41;83.74;100520.28;5064992;28;20035;-78
2022/11/08 07:52:57;;;;;;;8.35;3.03;;;;;;;10.44;83.74;100515.13;5064870;28;20029;-77
2022/11/08 07:55:24;;;;;;;9.55;3.17;;;;;;;10.46;83.44;100505.63;5063703;28;20025;-77
2022/11/08 07:57:50;;;;;;;5.72;2.70;;;;;;;10.48;83.11;100501.31;5080100;28;20187;-77
2022/11/08 08:00:16;;;;;;;8.85;3.00;;;;;;;10.53;82.70;100510.13;5064643;28;20037;-77
2022/11/08 08:02:41;;;;;;;6.03;2.75;;;;;;;10.56;82.61;100507.56;5064029;28;20195;-76
2022/11/08 08:05:07;;;;;;;4.60;2.47;;;;;;;10.61;81.90;100515.44;5064993;28;20052;-78
2022/11/08 08:07:36;;;;;;;6.75;2.38;;;;;;;10.65;81.91;100508.59;5064744;28;21427;-78
2022/11/08 08:10:02;;;;;;;5.70;2.28;;;;;;;10.70;81.13;100507.81;5080096;28;20086;-79
2022/11/08 08:12:27;;;;;;;6.88;2.20;;;;;;;10.76;80.96;100509.63;5063875;28;20049;-77
2022/11/08 08:14:53;;;;;;;7.35;2.60;;;;;;;10.82;80.37;100512.38;5064429;28;20033;-77
2022/11/08 08:17:18;;;;;;;5.50;2.30;;;;;;;10.88;80.28;100517.66;5064488;28;20268;-78
2022/11/08 08:19:43;;;;;;;6.60;2.40;;;;;;;10.95;79.39;100513.44;5064419;28;20036;-79
2022/11/08 08:22:08;;;;;;;4.47;1.83;;;;;;;11.03;79.20;100519.66;5061898;28;20338;-77
2022/11/08 08:24:34;;;;;;;7.50;2.20;;;;;;;11.11;78.70;100523.25;5062927;28;20033;-78
2022/11/08 08:26:59;;;;;;;4.55;1.90;;;;;;;11.20;78.86;100526.88;5063722;28;20084;-77
2022/11/08 08:29:24;;;;;;;6.18;1.95;;;;;;;11.26;78.32;100525.22;5063969;28;20060;-78
2022/11/08 08:31:50;;;;;;;5.25;2.20;;;;;;;11.33;77.69;100521.00;5062395;28;20742;-78
2022/11/08 08:34:16;;;;;;;4.78;2.03;;;;;;;11.38;77.87;100536.72;5059898;28;20021;-76
2022/11/08 08:36:42;;;;;;;4.93;2.00;;;;;;;11.43;77.93;100538.53;5062697;28;20040;-76
2022/11/08 08:39:07;;;;;;;6.30;2.17;;;;;;;11.47;77.87;100550.78;5062995;28;20028;-77
2022/11/08 08:41:32;;;;;;;6.30;2.00;;;;;;;11.52;77.32;100547.38;5063448;28;20021;-78
2022/11/08 08:43:58;;;;;;;4.50;1.90;;;;;;;11.56;77.20;100534.38;5059265;28;20021;-78
2022/11/08 08:46:23;;;;;;;6.00;2.42;;;;;;;11.64;75.90;100527.56;5063059;28;20060;-70
2022/11/08 08:48:48;;;;;;;6.35;2.20;;;;;;;11.70;75.78;100526.72;5059664;28;20025;-70
2022/11/08 08:51:13;;;;;;;5.57;2.08;;;;;;;11.77;75.07;100528.56;5058662;28;20112;-70
2022/11/08 08:53:39;;;;;;;4.47;1.85;;;;;;;11.81;75.42;100514.72;5062322;28;20090;-70
2022/11/08 08:56:05;;;;;;;5.03;2.50;;;;;;;11.86;75.56;100517.41;5059556;28;20275;-70
2022/11/08 08:58:31;;;;;;;5.97;2.30;;;;;;;11.91;75.52;100520.06;5076938;28;20032;-70
2022/11/08 09:01:00;;;;;;;5.50;2.00;;;;;;;11.95;76.14;100516.69;5062564;28;20021;-70
2022/11/08 09:03:26;;;;;;;6.10;2.10;;;;;;;11.96;75.88;100516.69;5060293;28;20094;-70
2022/11/08 09:05:51;;;;;;;5.80;2.13;;;;;;;12.00;74.92;100515.84;5062579;28;20279;-70
2022/11/08 09:08:17;;;;;;;4.35;1.80;;;;;;;12.03;76.22;100509.78;5061978;28;20048;-70
2022/11/08 09:10:42;;;;;;;4.13;2.10;;;;;;;12.05;74.87;100487.19;5061282;28;20033;-70
2022/11/08 09:13:08;;;;;;;4.32;2.13;;;;;;;12.08;76.27;100494.19;5063210;28;20288;-70
2022/11/08 09:15:33;;;;;;;5.55;2.40;;;;;;;12.13;74.80;100495.13;5063246;28;20109;-70
2022/11/08 09:17:58;;;;;;;6.78;2.05;;;;;;;12.15;75.36;100498.59;5062902;28;20256;-71
2022/11/08 09:20:24;;;;;;;4.32;1.90;;;;;;;12.17;75.70;100515.19;5060789;28;20264;-70
2022/11/08 09:22:49;;;;;;;4.65;2.13;;;;;;;12.20;74.95;100517.84;5061261;28;20048;-70
2022/11/08 09:25:14;;;;;;;4.97;2.10;;;;;;;12.25;74.74;100510.94;5075687;28;20057;-70
2022/11/08 09:27:40;;;;;;;6.43;2.38;;;;;;;12.27;76.10;100498.75;5060216;28;20326;-70
2022/11/08 09:30:06;;;;;;;4.85;2.03;;;;;;;12.30;74.23;100490.94;5060592;28;20029;-70
2022/11/08 09:32:32;;;;;;;6.55;2.00;;;;;;;12.32;74.60;100481.38;5061211;28;20029;-70
2022/11/08 09:34:57;;;;;;;5.20;2.33;;;;;;;12.34;75.07;100489.28;5060910;28;20581;-71
2022/11/08 09:37:23;;;;;;;4.55;2.00;;;;;;;12.37;74.52;100491.91;5061499;28;20090;-70
2022/11/08 09:39:48;;;;;;;4.07;1.95;;;;;;;12.40;73.81;100497.16;5060640;28;20036;-70
2022/11/08 09:42:42;;;;;;;6.10;2.40;;;;;;;12.42;74.73;100500.66;5058344;28;20092;-70
2022/11/08 09:45:20;;;;;;;4.40;2.15;;;;;;;12.46;74.20;100494.59;5058429;28;20301;-70
2022/11/08 09:47:59;;;;;;;4.63;2.30;;;;;;;12.52;74.61;100480.72;5061587;28;20025;-76
2022/11/08 09:50:30;;;;;;;5.45;2.00;;;;;;;12.58;74.67;100495.59;5060617;28;20453;-77
2022/11/08 09:53:25;;;;;;;4.53;2.00;;;;;;;12.61;74.32;100496.47;5058837;28;20031;-71
2022/11/08 09:55:58;;;;;;;5.32;2.00;;;;;;;12.66;73.93;100510.47;5052062;28;20230;-71
2022/11/08 09:58:24;;;;;;;4.60;2.13;;;;;;;12.70;73.51;100509.66;5059167;28;20318;-71
2022/11/08 10:00:52;;;;;;;5.35;1.83;;;;;;;12.76;73.76;100514.06;5061076;28;20041;-71
2022/11/08 10:03:20;;;;;;;6.17;2.10;;;;;;;12.83;73.33;100517.59;5061243;28;20021;-72
2022/11/08 10:06:12;;;;;;;4.68;2.40;;;;;;;12.88;73.70;100508.94;5062691;28;20114;-72
2022/11/08 10:08:59;;;;;;;5.97;2.10;;;;;;;12.95;73.23;100515.09;5060535;28;20059;-71
2022/11/08 10:11:32;;;;;;;6.70;2.20;;;;;;;13.01;72.90;100507.31;5062177;28;20062;-71
2022/11/08 10:14:16;;;;;;;4.53;1.80;;;;;;;13.10;73.91;100505.63;5062946;28;20260;-72
2022/11/08 10:16:55;;;;;;;3.97;2.10;;;;;;;13.16;72.21;100509.16;5061485;28;20358;-65
2022/11/08 10:19:49;;;;;;;5.35;2.50;;;;;;;13.25;72.30;100523.19;5061688;28;20052;-64
2022/11/08 10:22:30;;;;;;;3.72;2.05;;;;;;;13.30;72.29;100538.06;5052265;28;20392;-65
2022/11/08 10:25:01;;;;;;;5.72;2.20;;;;;;;13.36;70.98;100513.69;5061944;28;20248;-65
2022/11/08 10:27:32;;;;;;;7.18;2.50;;;;;;;13.41;71.05;100525.06;5062688;28;20021;-65
2022/11/08 10:30:02;;;;;;;6.20;2.25;;;;;;;13.43;70.63;100525.09;5061327;28;20140;-65
2022/11/08 10:32:30;;;;;;;3.95;2.08;;;;;;;13.42;70.89;100528.56;5062185;28;20072;-65
2022/11/08 10:35:18;;;;;;;3.67;1.90;;;;;;;13.45;71.58;100528.59;5061931;28;20076;-65
2022/11/08 10:37:43;;;;;;;4.80;2.30;;;;;;;13.46;70.96;100538.19;5057764;28;20059;-65
2022/11/08 10:40:31;;;;;;;5.57;2.28;;;;;;;13.46;71.91;100531.22;5060659;28;20048;-65
2022/11/08 10:43:04;;;;;;;6.50;2.13;;;;;;;13.47;70.28;100529.47;5062849;28;20021;-65
2022/11/08 10:45:29;;;;;;;4.35;1.90;;;;;;;13.46;71.26;100527.72;5062272;28;20300;-66
2022/11/08 10:47:54;;;;;;;6.13;2.13;;;;;;;13.46;71.24;100539.06;5061424;28;20031;-71
2022/11/08 10:50:35;;;;;;;6.68;2.17;;;;;;;13.47;70.40;100539.94;5060915;28;20032;-71
2022/11/08 10:53:02;;;;;;;5.78;2.10;;;;;;;13.49;70.38;100532.97;5062481;28;20041;-72
2022/11/08 10:55:37;;;;;;;6.15;2.30;;;;;;;13.51;70.68;100532.13;5061576;28;20179;-72
2022/11/08 10:58:03;;;;;;;5.10;2.20;;;;;;;13.56;69.29;100534.78;5061932;28;20033;-71
2022/11/08 11:00:31;;;;;;;5.55;2.10;;;;;;;13.60;70.58;100522.56;5061638;28;20028;-72
2022/11/08 11:03:14;;;;;;;5.03;2.10;;;;;;;13.62;69.57;100524.34;5061554;28;20060;-71
2022/11/08 11:05:42;;;;;;;4.63;2.10;;;;;;;13.66;69.24;100526.09;5061393;28;20033;-71
2022/11/08 11:08:08;;;;;;;4.82;2.15;;;;;;;13.67;69.44;100509.53;5062352;28;20088;-72
2022/11/08 11:10:37;;;;;;;5.50;2.20;;;;;;;13.69;70.00;100499.94;5060816;28;20029;-71
2022/11/08 11:13:25;;;;;;;4.80;2.00;;;;;;;13.71;69.97;100499.94;5061357;28;20306;-72
2022/11/08 11:15:57;;;;;;;4.68;2.05;;;;;;;13.71;69.41;100492.09;5059778;28;20028;-72
2022/11/08 11:18:36;;;;;;;5.75;2.00;;;;;;;13.71;70.18;100487.72;5061102;28;20031;-72
2022/11/08 11:21:09;;;;;;;;;;;;;;;13.77;71.16;100486.88;5064771;28;20037;-71
2022/11/08 11:23:45;;;;;;;6.05;2.20;;;;;;;13.77;69.79;100501.72;5065506;28;19909;-71
2022/11/08 11:26:28;;;;;;;4.78;2.30;;;;;;;13.78;70.14;100487.78;5065085;28;20084;-71
2022/11/08 11:29:03;;;;;;;6.45;2.30;;;;;;;13.80;69.96;100478.16;5065240;28;20319;-71
2022/11/08 11:31:29;;;;;;;4.88;1.90;;;;;;;13.83;69.15;100465.06;5065805;28;20163;-71
2022/11/08 11:33:55;;;;;;;4.47;1.85;;;;;;;13.84;69.20;100462.47;5065938;28;20109;-71
2022/11/08 11:36:24;;;;;;;3.35;1.95;;;;;;;13.86;70.18;100455.50;5065923;28;20234;-71
2022/11/08 11:39:12;;;;;;;4.90;1.92;;;;;;;13.94;69.53;100463.38;5065808;28;20369;-71
2022/11/08 11:41:46;;;;;;;5.25;2.22;;;;;;;13.98;69.45;100475.63;5064911;28;20024;-72
2022/11/08 11:44:21;;;;;;;4.80;2.38;;;;;;;14.03;68.99;100475.63;5064231;28;20017;-72
2022/11/08 11:46:57;;;;;;;4.40;1.95;;;;;;;14.06;69.63;100479.16;5058880;28;20021;-71